Time;durP1;ratioP1;P1;durP2;ratioP2;P2;SDS_P1;SDS_P2;PMS_P1;PMS_P2;Temp;Humidity;BMP_temperature;BMP_pressure;BME280_temperature;BME280_humidity;BME280_pressure;Samples;Min_cycle;Max_cycle;Signal;HPM_P1;HPM_P2
2023/02/08 00:00:57;;;;;;;;;36.50;35.00;;;;;6.56;52.88;103046.97;2070087;28;46415;-62
2023/02/08 00:01:58;;;;;;;;;43.00;37.75;;;;;6.56;52.70;103044.34;2077546;27;46620;-62
2023/02/08 00:02:58;;;;;;;;;44.25;38.25;;;;;6.55;52.73;103040.81;2063275;28;46219;-62
2023/02/08 00:03:58;;;;;;;;;45.00;38.25;;;;;6.55;52.82;103047.84;2069409;28;46232;-63
2023/02/08 00:04:59;;;;;;;;;46.75;39.25;;;;;6.51;52.64;103044.22;2068730;28;46513;-64
2023/02/08 00:05:59;;;;;;;;;36.50;31.75;;;;;6.52;52.62;103048.63;2061715;28;46569;-63
2023/02/08 00:06:59;;;;;;;;;43.00;37.50;;;;;6.52;52.37;103045.09;2076147;27;46609;-63
2023/02/08 00:08:00;;;;;;;;;39.50;36.50;;;;;6.53;52.61;103041.63;2078635;27;46247;-63
2023/02/08 00:09:00;;;;;;;;;38.75;36.50;;;;;6.52;52.40;103042.47;2079006;27;46472;-62
2023/02/08 00:10:03;;;;;;;;;39.00;36.75;;;;;6.53;52.76;103038.97;2078364;27;46246;-63
2023/02/08 00:11:05;;;;;;;;;39.40;37.80;;;;;6.53;52.40;103044.25;2079063;27;46503;-62
2023/02/08 00:12:06;;;;;;;;;39.60;37.40;;;;;6.53;52.60;103038.97;2109103;27;46369;-62
2023/02/08 00:13:06;;;;;;;;;46.00;38.25;;;;;6.54;52.39;103038.13;2098348;27;46248;-62
2023/02/08 00:14:07;;;;;;;;;33.50;32.25;;;;;6.53;52.72;103034.59;2070686;28;46510;-63
2023/02/08 00:15:08;;;;;;;;;43.80;39.20;;;;;6.55;52.48;103038.19;2076500;28;46390;-62
2023/02/08 00:16:09;;;;;;;;;41.50;38.00;;;;;6.55;52.69;103032.91;2078230;27;46869;-64
2023/02/08 00:17:09;;;;;;;;;40.00;36.40;;;;;6.56;52.27;103033.78;2079374;27;45610;-62
2023/02/08 00:18:10;;;;;;;;;41.75;38.00;;;;;6.57;52.71;103033.84;2077286;27;46241;-62
2023/02/08 00:19:10;;;;;;;;;41.00;38.25;;;;;6.56;52.71;103032.06;2078953;27;46696;-62
2023/02/08 00:20:11;;;;;;;;;42.75;38.00;;;;;6.59;52.55;103039.16;2079184;27;46342;-62
2023/02/08 00:21:14;;;;;;;;;38.25;35.25;;;;;6.58;52.40;103038.25;2084340;27;46045;-62
2023/02/08 00:22:14;;;;;;;;;39.20;37.00;;;;;6.58;52.73;103032.09;2104703;27;46928;-63
2023/02/08 00:23:15;;;;;;;;;33.00;33.00;;;;;6.59;52.59;103034.78;2095045;28;46238;-63
2023/02/08 00:24:15;;;;;;;;;41.75;36.75;;;;;6.58;52.31;103033.00;2094316;28;46462;-61
2023/02/08 00:25:15;;;;;;;;;44.00;39.25;;;;;6.58;52.47;103035.63;2054283;28;45876;-64
2023/02/08 00:26:16;;;;;;;;;41.25;38.00;;;;;6.59;52.55;103037.41;2085302;27;45856;-62
2023/02/08 00:27:17;;;;;;;;;45.00;38.00;;;;;6.58;52.49;103033.00;2111836;27;46843;-62
2023/02/08 00:28:18;;;;;;;;;37.25;35.25;;;;;6.58;52.73;103032.09;2105307;27;46523;-61
2023/02/08 00:29:19;;;;;;;;;44.80;38.60;;;;;6.57;52.48;103025.03;2104645;27;46457;-62
2023/02/08 00:30:19;;;;;;;;;41.25;38.25;;;;;6.57;52.71;103027.66;2108498;27;47326;-62
2023/02/08 00:31:19;;;;;;;;;45.50;38.00;;;;;6.57;52.84;103023.28;2072443;27;46483;-63
2023/02/08 00:32:20;;;;;;;;;41.75;37.00;;;;;6.57;52.57;103025.91;2065247;27;46718;-62
2023/02/08 00:33:20;;;;;;;;;38.50;36.50;;;;;6.56;52.69;103023.25;2104083;28;45075;-62
2023/02/08 00:34:21;;;;;;;;;41.00;37.75;;;;;6.57;52.50;103033.84;2095150;28;45160;-63
2023/02/08 00:35:21;;;;;;;;;40.75;36.75;;;;;6.56;52.71;103023.25;2070413;28;46615;-63
2023/02/08 00:36:21;;;;;;;;;39.25;37.00;;;;;6.57;52.92;103025.03;2075686;27;46578;-63
2023/02/08 00:37:22;;;;;;;;;45.25;39.75;;;;;6.56;52.58;103017.97;2075742;27;45662;-63
2023/02/08 00:38:22;;;;;;;;;6.25;3.00;;;;;6.56;52.83;103026.78;2071021;28;45862;-63
2023/02/08 00:39:23;;;;;;;;;37.75;34.50;;;;;6.55;52.73;103018.81;2069603;27;47098;-62
2023/02/08 00:40:24;;;;;;;;;35.40;34.20;;;;;6.54;52.68;103020.56;2062497;27;46758;-63
2023/02/08 00:41:24;;;;;;;;;39.20;36.00;;;;;6.53;52.43;103025.78;2069513;27;46363;-63
2023/02/08 00:42:25;;;;;;;;;39.25;34.75;;;;;6.51;52.77;103025.75;2068037;27;46644;-63
2023/02/08 00:43:25;;;;;;;;;37.20;36.00;;;;;6.51;52.81;103022.22;2064156;28;46209;-63
2023/02/08 00:44:26;;;;;;;;;41.50;37.50;;;;;6.50;52.64;103021.31;2069358;27;46626;-62
2023/02/08 00:45:26;;;;;;;;;38.25;36.25;;;;;6.49;52.28;103011.63;2070890;27;46647;-61
2023/02/08 00:46:26;;;;;;;;;35.25;35.00;;;;;6.49;52.52;103011.63;2073141;27;45286;-62
2023/02/08 00:47:27;;;;;;;;;40.25;36.25;;;;;6.46;52.58;103015.03;2073926;27;46285;-62
2023/02/08 00:48:28;;;;;;;;;36.00;34.00;;;;;6.46;52.49;103017.66;2062331;28;46493;-61
2023/02/08 00:49:28;;;;;;;;;37.75;34.75;;;;;6.45;52.19;103017.63;2074371;27;46286;-63
2023/02/08 00:50:28;;;;;;;;;40.00;36.00;;;;;6.45;52.34;103018.50;2066796;27;45748;-63
2023/02/08 00:51:28;;;;;;;;;37.50;35.50;;;;;6.45;52.39;103022.91;2074843;27;46757;-63
2023/02/08 00:52:29;;;;;;;;;39.50;35.50;;;;;6.44;52.53;103019.38;2082438;27;46177;-61
2023/02/08 00:53:30;;;;;;;;;35.50;34.00;;;;;6.43;52.72;103014.94;2062480;28;46888;-62
2023/02/08 00:54:30;;;;;;;;;41.40;37.80;;;;;6.42;52.74;103014.88;2076471;27;46775;-63
2023/02/08 00:55:30;;;;;;;;;36.25;34.50;;;;;6.42;52.64;103013.16;2076506;27;47153;-62
2023/02/08 00:56:31;;;;;;;;;33.00;31.25;;;;;6.42;52.40;103023.69;2068197;27;46235;-62
2023/02/08 00:57:32;;;;;;;;;37.75;36.25;;;;;6.42;52.67;103026.34;2096153;27;45325;-63
2023/02/08 00:58:33;;;;;;;;;41.60;37.40;;;;;6.42;52.45;103017.53;2072815;27;46283;-62
2023/02/08 00:59:34;;;;;;;;;39.20;37.40;;;;;6.41;52.73;103019.28;2100161;27;45277;-62
2023/02/08 01:00:34;;;;;;;;;42.00;37.50;;;;;6.41;52.42;103018.38;2070212;27;46280;-62
2023/02/08 01:01:35;;;;;;;;;34.00;32.50;;;;;6.40;52.97;103017.47;2067546;28;45619;-60
2023/02/08 01:02:37;;;;;;;;;38.50;36.75;;;;;6.39;52.84;103026.25;2075841;27;45850;-62
2023/02/08 01:03:40;;;;;;;;;37.00;33.00;;;;;6.38;52.65;103024.47;2075187;27;46150;-62
2023/02/08 01:04:40;;;;;;;;;42.60;38.60;;;;;6.37;52.85;103021.78;2070193;28;46493;-61
2023/02/08 01:05:41;;;;;;;;;31.00;30.00;;;;;6.36;52.81;103018.25;2070949;27;46974;-62
2023/02/08 01:06:41;;;;;;;;;38.00;35.50;;;;;6.36;52.54;103020.88;2073500;27;46717;-61
2023/02/08 01:07:41;;;;;;;;;38.50;35.50;;;;;6.36;52.88;103019.97;2073641;28;46320;-61
2023/02/08 01:08:42;;;;;;;;;39.50;36.75;;;;;6.35;52.22;103026.06;2073371;27;46286;-61
2023/02/08 01:09:43;;;;;;;;;34.50;32.75;;;;;6.33;52.73;103023.38;2067241;28;46162;-61
2023/02/08 01:10:43;;;;;;;;;38.25;34.75;;;;;6.32;52.82;103018.97;2078442;27;46613;-61
2023/02/08 01:11:43;;;;;;;;;37.75;35.75;;;;;6.32;52.88;103025.97;2069149;27;46456;-61
2023/02/08 01:12:44;;;;;;;;;35.50;33.25;;;;;6.29;52.82;103024.16;2070593;28;46391;-62
2023/02/08 01:13:44;;;;;;;;;34.00;32.00;;;;;6.28;52.61;103025.00;2076451;27;45998;-62
2023/02/08 01:14:45;;;;;;;;;35.75;35.00;;;;;6.27;52.50;103028.47;2067377;27;46645;-61
2023/02/08 01:15:45;;;;;;;;;32.75;32.75;;;;;6.27;52.30;103024.94;2074099;28;46240;-60
2023/02/08 01:16:46;;;;;;;;;31.25;30.75;;;;;6.25;52.64;103024.91;2074421;27;46574;-62
2023/02/08 01:17:46;;;;;;;;;38.50;35.00;;;;;6.23;52.39;103029.22;2067302;28;46462;-60
2023/02/08 01:18:49;;;;;;;;;38.00;33.50;;;;;6.22;52.41;103026.53;2102554;27;45613;-61
2023/02/08 01:19:49;;;;;;;;;33.20;32.00;;;;;6.21;52.57;103028.25;2079611;27;46847;-62
2023/02/08 01:20:49;;;;;;;;;43.25;39.00;;;;;6.19;52.85;103033.50;2086485;27;46843;-63
2023/02/08 01:21:50;;;;;;;;;34.75;31.00;;;;;6.18;52.77;103031.69;2093811;27;46167;-63
2023/02/08 01:22:50;;;;;;;;;34.75;34.75;;;;;6.18;52.63;103031.69;2067104;27;46323;-62
2023/02/08 01:23:51;;;;;;;;;40.50;36.00;;;;;6.16;52.98;103033.38;2095826;27;46311;-62
2023/02/08 01:24:51;;;;;;;;;31.50;30.50;;;;;6.16;52.44;103030.75;2082591;27;46775;-62
2023/02/08 01:25:52;;;;;;;;;33.25;32.00;;;;;6.16;52.50;103033.38;2076951;27;46381;-63
2023/02/08 01:26:52;;;;;;;;;42.50;36.25;;;;;6.15;52.25;103041.25;2098477;27;45490;-63
2023/02/08 01:27:55;;;;;;;;;35.00;33.50;;;;;6.12;52.56;103042.06;2073508;27;46699;-61
2023/02/08 01:28:56;;;;;;;;;33.40;29.80;;;;;6.11;52.28;103029.72;2083918;27;46736;-63
2023/02/08 01:29:56;;;;;;;;;33.75;33.50;;;;;6.11;52.68;103040.25;2097687;27;46588;-62
2023/02/08 01:30:57;;;;;;;;;35.25;31.00;;;;;6.09;52.29;103041.94;2069112;27;46268;-63
2023/02/08 01:31:57;;;;;;;;;31.50;30.25;;;;;6.08;52.54;103036.59;2093241;27;45165;-62
2023/02/08 01:32:57;;;;;;;;;35.00;32.25;;;;;6.07;52.43;103034.81;2086108;27;46795;-63
2023/02/08 01:33:59;;;;;;;;;26.50;25.75;;;;;6.06;52.50;103038.28;2075688;27;46247;-61
2023/02/08 01:34:59;;;;;;;;;28.00;28.00;;;;;6.05;52.64;103036.50;2071231;27;46313;-63
2023/02/08 01:36:00;;;;;;;;;44.50;37.00;;;;;6.05;53.22;103044.41;2079157;27;45985;-63
2023/02/08 01:37:00;;;;;;;;;34.75;33.25;;;;;6.03;52.72;103041.72;2078134;27;45246;-61
2023/02/08 01:38:01;;;;;;;;;34.75;34.00;;;;;6.02;52.64;103042.56;2089425;27;45878;-62
2023/02/08 01:39:02;;;;;;;;;35.25;34.50;;;;;6.02;52.33;103046.97;2072569;27;46618;-62
2023/02/08 01:40:03;;;;;;;;;35.60;33.80;;;;;5.99;52.71;103039.84;2085504;27;46471;-62
2023/02/08 01:41:06;;;;;;;;;32.00;29.75;;;;;5.98;52.68;103043.31;2089962;27;46322;-61
2023/02/08 01:42:12;;;;;;;;;30.80;30.00;;;;;5.98;53.06;103045.97;2061142;28;46511;-62
2023/02/08 01:43:25;;;;;;;;;35.40;35.40;;;;;5.97;52.98;103044.19;2079398;28;46575;-62
2023/02/08 01:45:03;;;;;;;;;29.20;27.60;;;;;5.96;53.03;103052.00;2069224;28;46507;-63
2023/02/08 01:46:03;;;;;;;;;38.20;36.00;;;;;5.96;52.94;103044.09;2071742;27;46808;-63
2023/02/08 01:47:05;;;;;;;;;27.80;27.80;;;;;5.94;52.70;103045.78;2070102;28;46647;-64
2023/02/08 01:48:20;;;;;;;;;32.50;31.50;;;;;5.94;52.59;103044.03;2061698;28;45159;-63
2023/02/08 01:49:32;;;;;;;;;31.60;30.40;;;;;5.95;52.94;103040.56;2065852;27;45811;-62
2023/02/08 01:51:02;;;;;;;;;31.00;30.00;;;;;5.94;52.69;103041.41;2069479;27;46481;-63
2023/02/08 01:52:11;;;;;;;;;34.20;32.40;;;;;5.94;52.71;103049.31;2088577;28;46590;-62
2023/02/08 01:53:12;;;;;;;;;35.00;33.80;;;;;5.93;53.09;103042.25;2086785;28;46696;-62
2023/02/08 01:54:15;;;;;;;;;36.80;32.60;;;;;5.94;52.78;103040.50;2091218;28;46122;-63
2023/02/08 01:55:33;;;;;;;;;30.40;28.60;;;;;5.93;52.87;103039.63;2093164;28;46361;-62
2023/02/08 01:56:37;;;;;;;;;31.40;28.60;;;;;5.92;52.88;103036.94;2086813;28;46556;-63
2023/02/08 01:57:38;;;;;;;;;23.60;23.00;;;;;5.92;53.22;103043.09;2088628;28;45192;-62
2023/02/08 01:58:44;;;;;;;;;36.75;30.50;;;;;5.93;52.57;103033.44;2087486;28;44996;-63
2023/02/08 02:00:14;;;;;;;;;39.20;35.40;;;;;5.91;52.83;103033.41;2086747;28;46393;-62
2023/02/08 02:01:15;;;;;;;;;31.20;28.40;;;;;5.93;52.64;103036.09;2073927;28;46313;-62
2023/02/08 02:02:19;;;;;;;;;31.75;29.25;;;;;5.91;53.02;103036.03;2078792;28;46312;-61
2023/02/08 02:03:22;;;;;;;;;34.80;33.20;;;;;5.89;52.92;103035.97;2086943;28;46118;-63
2023/02/08 02:04:23;;;;;;;;;29.40;27.60;;;;;5.88;52.87;103030.63;2086828;28;47047;-62
2023/02/08 02:05:33;;;;;;;;;30.40;29.20;;;;;5.87;52.34;103028.84;2087687;28;45934;-62
2023/02/08 02:06:37;;;;;;;;;29.60;29.20;;;;;5.86;52.91;103034.97;2087682;28;47185;-62
2023/02/08 02:07:39;;;;;;;;;35.40;33.80;;;;;5.84;52.67;103028.72;2086721;28;46255;-63
2023/02/08 02:08:48;;;;;;;;;35.20;33.20;;;;;5.81;52.77;103025.97;2089347;28;45799;-62
2023/02/08 02:09:51;;;;;;;;;33.00;32.80;;;;;5.79;52.46;103032.94;2094383;28;46252;-61
2023/02/08 02:10:52;;;;;;;;;29.80;27.40;;;;;5.79;53.13;103031.19;2086382;28;46536;-63
2023/02/08 02:11:53;;;;;;;;;31.50;27.25;;;;;5.80;53.07;103032.09;2087085;28;46118;-61
2023/02/08 02:12:57;;;;;;;;;31.60;29.40;;;;;5.81;52.86;103023.34;2086802;28;46855;-62
2023/02/08 02:13:59;;;;;;;;;36.80;33.40;;;;;5.81;52.98;103018.09;2086906;28;47643;-63
2023/02/08 02:15:01;;;;;;;;;29.40;28.60;;;;;5.81;52.70;103018.09;2086954;28;46243;-63
2023/02/08 02:16:01;;;;;;;;;30.20;29.40;;;;;5.81;52.78;103018.97;2078096;28;46678;-62
2023/02/08 02:17:02;;;;;;;;;35.00;33.50;;;;;5.80;52.78;103024.19;2072451;28;44987;-63
2023/02/08 02:18:05;;;;;;;;;27.75;27.25;;;;;5.81;53.17;103023.34;2081835;28;46767;-62
2023/02/08 02:19:14;;;;;;;;;35.60;32.40;;;;;5.79;52.81;103022.41;2088331;28;46868;-64
2023/02/08 02:20:48;;;;;;;;;33.40;30.40;;;;;5.77;52.83;103022.34;2088625;28;45844;-62
2023/02/08 02:22:26;;;;;;;;;31.40;30.00;;;;;5.75;52.49;103021.41;2088721;28;45568;-63
2023/02/08 02:24:10;;;;;;;;;30.80;30.00;;;;;5.75;52.93;103020.53;2089474;28;45844;-61
2023/02/08 02:25:45;;;;;;;;;32.60;28.40;;;;;5.74;52.89;103019.63;2072282;28;45692;-63
2023/02/08 02:27:15;;;;;;;;;38.40;35.00;;;;;5.72;52.72;103005.50;2071704;28;46814;-61
2023/02/08 02:28:19;;;;;;;;;36.00;31.80;;;;;5.71;52.64;103002.78;2071630;28;46668;-63
2023/02/08 02:29:38;;;;;;;;;33.20;30.40;;;;;5.70;52.93;103001.00;2071844;28;46334;-61
2023/02/08 02:31:29;;;;;;;;;31.20;27.80;;;;;5.67;52.87;102999.16;2087730;28;47009;-62
2023/02/08 02:32:54;;;;;;;;;33.60;30.80;;;;;5.66;52.69;102997.38;2071450;28;47155;-63
2023/02/08 02:34:03;;;;;;;;;31.80;29.40;;;;;5.63;52.84;102999.91;2073973;28;47036;-63
2023/02/08 02:35:15;;;;;;;;;30.00;29.00;;;;;5.62;53.09;103000.75;2071838;28;46175;-62
2023/02/08 02:36:41;;;;;;;;;35.20;33.60;;;;;5.62;52.64;102995.47;2068320;28;46896;-62
2023/02/08 02:38:02;;;;;;;;;31.00;29.20;;;;;5.60;52.92;102992.81;2046788;28;46810;-61
2023/02/08 02:39:08;;;;;;;;;33.40;30.40;;;;;5.61;52.53;102994.59;2047082;28;46347;-62
2023/02/08 02:40:24;;;;;;;;;31.40;28.60;;;;;5.60;52.73;102986.63;2039515;28;46735;-62
2023/02/08 02:43:40;;;;;;;;;37.80;30.60;;;;;5.58;53.24;102983.91;2053743;28;46594;-63
2023/02/08 02:45:01;;;;;;;;;30.20;30.20;;;;;5.58;53.23;102980.38;2054460;28;46068;-62
2023/02/08 02:46:17;;;;;;;;;27.40;27.20;;;;;5.57;52.92;102975.97;2051178;28;46538;-62
2023/02/08 02:47:30;;;;;;;;;33.60;30.80;;;;;5.57;53.65;102983.88;2047729;28;46679;-62
2023/02/08 02:48:36;;;;;;;;;32.60;28.20;;;;;5.57;52.93;102974.22;2047310;28;46496;-61
2023/02/08 02:49:46;;;;;;;;;32.00;29.20;;;;;5.56;52.83;102975.06;2047191;28;46319;-62
2023/02/08 02:50:57;;;;;;;;;38.80;33.40;;;;;5.57;53.23;102975.97;2047059;28;46560;-63
2023/02/08 02:52:05;;;;;;;;;30.00;28.40;;;;;5.55;52.94;102975.91;2047390;28;46834;-61
2023/02/08 02:53:18;;;;;;;;;30.20;28.80;;;;;5.56;53.15;102984.72;2047142;28;46293;-61
2023/02/08 02:54:32;;;;;;;;;32.60;28.00;;;;;5.56;53.47;102982.09;2047504;28;46438;-64
2023/02/08 02:55:38;;;;;;;;;34.60;31.00;;;;;5.56;53.33;102979.44;2048133;28;46412;-63
2023/02/08 02:56:44;;;;;;;;;35.80;29.80;;;;;5.56;52.96;102976.81;2047100;28;46485;-61
2023/02/08 02:57:49;;;;;;;;;34.40;31.40;;;;;5.55;52.78;102985.56;2055887;28;46731;-61
2023/02/08 02:58:50;;;;;;;;;33.60;31.80;;;;;5.54;53.42;102978.50;2056151;28;46673;-60
2023/02/08 02:59:51;;;;;;;;;29.20;29.20;;;;;5.52;53.29;102977.56;2055272;28;46607;-61
2023/02/08 03:00:56;;;;;;;;;38.75;36.50;;;;;5.50;53.22;102980.16;2056190;28;46302;-62
2023/02/08 03:01:57;;;;;;;;;35.60;29.20;;;;;5.50;52.93;102979.25;2056693;28;45676;-62
2023/02/08 03:02:57;;;;;;;;;27.00;25.75;;;;;5.48;53.07;102976.56;2048565;28;46262;-62
2023/02/08 03:03:58;;;;;;;;;29.50;29.50;;;;;5.48;53.17;102979.19;2055477;28;45093;-61
2023/02/08 03:04:58;;;;;;;;;31.50;29.25;;;;;5.48;53.06;102971.31;2063164;28;46738;-61
2023/02/08 03:06:18;;;;;;;;;34.50;29.50;;;;;5.47;53.56;102977.41;2055403;28;46213;-63
2023/02/08 03:07:19;;;;;;;;;35.80;31.20;;;;;5.46;53.09;102977.31;2077259;28;46815;-62
2023/02/08 03:08:34;;;;;;;;;30.25;29.00;;;;;5.46;53.30;102969.44;2080219;28;45264;-64
2023/02/08 03:09:51;;;;;;;;;33.20;32.80;;;;;5.44;53.39;102969.38;2079788;28;45729;-62
2023/02/08 03:11:00;;;;;;;;;36.80;33.20;;;;;5.44;53.40;102969.38;2083658;28;46471;-61
2023/02/08 03:12:31;;;;;;;;;38.40;35.00;;;;;5.44;53.63;102969.38;2083549;28;46380;-63
2023/02/08 03:13:53;;;;;;;;;31.00;29.40;;;;;5.43;53.53;102966.69;2091892;28;46348;-63
2023/02/08 03:15:12;;;;;;;;;33.80;33.60;;;;;5.43;53.61;102967.59;2085949;28;46834;-62
2023/02/08 03:16:17;;;;;;;;;35.40;31.00;;;;;5.43;53.72;102966.69;2064453;28;46485;-63
2023/02/08 03:17:20;;;;;;;;;30.20;30.20;;;;;5.42;53.40;102970.16;2074169;27;46711;-62
2023/02/08 03:18:33;;;;;;;;;29.20;27.40;;;;;5.39;53.77;102965.69;2075043;27;46321;-62
2023/02/08 03:20:01;;;;;;;;;27.20;25.20;;;;;5.39;53.47;102973.59;2063289;28;45782;-63
2023/02/08 03:21:10;;;;;;;;;37.60;34.00;;;;;5.38;53.98;102971.81;2063046;28;46266;-63
2023/02/08 03:22:16;;;;;;;;;31.60;31.40;;;;;5.37;53.78;102966.50;2076224;27;46812;-62
2023/02/08 03:23:44;;;;;;;;;33.00;31.60;;;;;5.34;53.66;102967.28;2069217;28;46603;-63
2023/02/08 03:24:57;;;;;;;;;35.80;35.40;;;;;5.31;54.04;102968.03;2082443;27;46316;-63
2023/02/08 03:26:07;;;;;;;;;31.40;30.20;;;;;5.31;53.83;102970.69;2063436;28;45647;-64
2023/02/08 03:27:13;;;;;;;;;38.20;36.00;;;;;5.30;54.23;102965.38;2062752;28;46906;-62
2023/02/08 03:28:27;;;;;;;;;41.40;36.80;;;;;5.30;53.81;102962.72;2077428;27;45894;-62
2023/02/08 03:29:39;;;;;;;;;36.20;32.20;;;;;5.28;53.86;102972.31;2070261;27;46553;-62
2023/02/08 03:31:12;;;;;;;;;30.00;29.60;;;;;5.29;54.27;102963.56;2065915;27;46818;-62
2023/02/08 03:32:44;;;;;;;;;36.00;35.20;;;;;5.26;53.85;102964.38;2071097;27;46544;-63
2023/02/08 03:33:55;;;;;;;;;33.40;30.40;;;;;5.25;53.80;102965.22;2087522;28;46484;-62
2023/02/08 03:35:24;;;;;;;;;29.20;28.00;;;;;5.23;53.97;102966.00;2077069;28;46972;-62
2023/02/08 03:36:31;;;;;;;;;38.20;35.60;;;;;5.21;53.75;102963.31;2058546;28;46922;-63
2023/02/08 03:37:44;;;;;;;;;36.60;35.20;;;;;5.21;53.93;102967.69;2062984;28;46877;-63
2023/02/08 03:38:48;;;;;;;;;38.60;36.80;;;;;5.21;54.22;102962.41;2054480;28;46528;-61
2023/02/08 03:39:55;;;;;;;;;34.40;32.00;;;;;5.22;54.15;102966.84;2062095;28;46862;-62
2023/02/08 03:40:59;;;;;;;;;34.00;31.00;;;;;5.21;54.11;102965.06;2062907;28;46683;-62
2023/02/08 03:42:05;;;;;;;;;39.80;34.20;;;;;5.20;54.14;102961.50;2062358;28;46120;-62
2023/02/08 03:43:26;;;;;;;;;34.20;33.20;;;;;5.19;53.99;102959.72;2059353;28;46912;-64
2023/02/08 03:44:35;;;;;;;;;38.80;37.80;;;;;5.20;54.53;102964.13;2048495;28;46636;-62
2023/02/08 03:45:46;;;;;;;;;36.00;33.80;;;;;5.19;54.43;102971.97;2048525;28;46836;-63
2023/02/08 03:47:01;;;;;;;;;42.20;36.60;;;;;5.19;54.12;102971.97;2054892;28;46909;-61
2023/02/08 03:48:05;;;;;;;;;36.80;32.80;;;;;5.19;54.08;102971.97;2054290;28;46722;-61
2023/02/08 03:49:13;;;;;;;;;42.80;38.80;;;;;5.20;54.67;102968.50;2055855;28;46797;-63
2023/02/08 03:50:16;;;;;;;;;38.00;35.00;;;;;5.19;54.32;102977.22;2054328;28;46676;-62
2023/02/08 03:51:19;;;;;;;;;41.00;37.60;;;;;5.20;54.23;102976.38;2052804;28;45569;-62
2023/02/08 03:52:21;;;;;;;;;32.00;30.20;;;;;5.19;54.65;102979.88;2055264;28;46628;-64
2023/02/08 03:53:24;;;;;;;;;42.60;37.40;;;;;5.19;54.49;102972.88;2054681;28;46298;-62
2023/02/08 03:54:29;;;;;;;;;37.20;35.20;;;;;5.17;54.64;102968.41;2054707;28;45577;-62
2023/02/08 03:55:33;;;;;;;;;42.80;38.40;;;;;5.16;54.59;102983.28;2055016;28;45792;-62
2023/02/08 03:56:40;;;;;;;;;33.20;30.80;;;;;5.17;54.54;102981.56;2054762;28;46742;-63
2023/02/08 03:57:58;;;;;;;;;40.80;38.60;;;;;5.16;54.19;102980.66;2051967;28;46323;-62
2023/02/08 03:59:04;;;;;;;;;36.00;36.00;;;;;5.17;54.36;102977.19;2054550;28;46671;-62
2023/02/08 04:00:09;;;;;;;;;33.60;28.60;;;;;5.17;54.53;102982.44;2054565;28;46595;-61
2023/02/08 04:01:18;;;;;;;;;42.80;34.20;;;;;5.16;54.74;102978.03;2054259;28;46509;-62
2023/02/08 04:02:22;;;;;;;;;39.20;33.60;;;;;5.14;54.73;102982.34;2054866;28;46184;-62
2023/02/08 04:03:26;;;;;;;;;38.20;36.00;;;;;5.15;54.54;102983.25;2054430;28;46969;-61
2023/02/08 04:04:32;;;;;;;;;37.60;35.60;;;;;5.14;54.27;102982.34;2054647;28;46777;-63
2023/02/08 04:05:33;;;;;;;;;32.80;29.20;;;;;5.14;54.58;102982.34;2054781;28;46399;-61
2023/02/08 04:06:34;;;;;;;;;38.75;32.00;;;;;5.13;54.26;102977.91;2054778;28;47012;-64
2023/02/08 04:07:34;;;;;;;;;36.00;33.50;;;;;5.13;54.73;102982.28;2054774;28;46598;-62
2023/02/08 04:08:35;;;;;;;;;43.25;38.00;;;;;5.11;54.45;102973.44;2054416;28;45597;-63
2023/02/08 04:09:35;;;;;;;;;31.50;31.00;;;;;5.10;54.81;102974.28;2055140;28;45278;-61
2023/02/08 04:10:35;;;;;;;;;36.75;33.50;;;;;5.10;54.47;102980.44;2054484;28;46297;-62
2023/02/08 04:11:36;;;;;;;;;37.50;33.50;;;;;5.09;54.47;102975.13;2063772;28;46880;-61
2023/02/08 04:12:36;;;;;;;;;33.75;33.50;;;;;5.08;54.60;102974.22;2070764;28;46830;-61
2023/02/08 04:13:36;;;;;;;;;35.25;32.00;;;;;5.08;54.59;102973.31;2069434;28;46667;-62
2023/02/08 04:14:37;;;;;;;;;37.00;34.50;;;;;5.08;54.65;102970.69;2081360;28;46576;-62
2023/02/08 04:15:37;;;;;;;;;21.75;21.75;;;;;5.08;54.94;102965.41;2067580;28;46328;-62
2023/02/08 04:16:37;;;;;;;;;33.25;31.50;;;;;5.07;54.81;102967.16;2068793;28;45094;-60
2023/02/08 04:17:38;;;;;;;;;31.75;28.25;;;;;5.08;54.86;102962.78;2069883;28;45211;-64
2023/02/08 04:18:38;;;;;;;;;36.25;35.00;;;;;5.08;54.34;102971.56;2065951;28;46407;-61
2023/02/08 04:19:39;;;;;;;;;31.25;30.50;;;;;5.09;54.63;102972.50;2064874;27;45370;-63
2023/02/08 04:20:39;;;;;;;;;37.25;36.50;;;;;5.08;54.62;102966.31;2071355;28;45073;-61
2023/02/08 04:21:39;;;;;;;;;41.75;36.50;;;;;5.08;54.59;102968.94;2066231;28;46401;-60
2023/02/08 04:22:40;;;;;;;;;39.25;38.00;;;;;5.09;54.74;102969.88;2076275;28;46535;-61
2023/02/08 04:23:40;;;;;;;;;34.00;31.25;;;;;5.08;54.46;102971.56;2078031;27;46194;-62
2023/02/08 04:24:40;;;;;;;;;38.25;35.50;;;;;5.08;54.42;102971.56;2105260;27;46286;-61
2023/02/08 04:25:41;;;;;;;;;38.25;35.25;;;;;5.09;54.87;102967.25;2112234;27;46962;-63
2023/02/08 04:26:42;;;;;;;;;35.50;34.25;;;;;5.11;54.51;102968.19;2093068;27;46930;-61
2023/02/08 04:27:42;;;;;;;;;31.50;29.00;;;;;5.10;54.76;102963.75;2094332;27;46372;-63
2023/02/08 04:28:42;;;;;;;;;32.50;29.25;;;;;5.10;54.58;102963.75;2109977;27;46777;-62
2023/02/08 04:29:43;;;;;;;;;37.00;35.00;;;;;5.10;54.39;102955.88;2091439;27;45515;-62
2023/02/08 04:30:43;;;;;;;;;33.50;33.50;;;;;5.10;54.58;102958.50;2091602;27;45463;-63
2023/02/08 04:31:43;;;;;;;;;31.50;29.75;;;;;5.09;54.62;102960.25;2098977;27;47089;-63
2023/02/08 04:32:44;;;;;;;;;36.00;34.25;;;;;5.08;54.79;102958.41;2091809;27;46765;-62
2023/02/08 04:33:44;;;;;;;;;39.00;34.50;;;;;5.08;54.65;102955.78;2078745;28;46631;-63
2023/02/08 04:34:44;;;;;;;;;29.25;27.50;;;;;5.07;54.74;102954.00;2085799;27;46447;-63
2023/02/08 04:35:44;;;;;;;;;33.25;30.50;;;;;5.08;54.24;102960.16;2070463;28;46977;-63
2023/02/08 04:36:45;;;;;;;;;37.75;33.00;;;;;5.10;54.33;102950.59;2109398;27;46617;-62
2023/02/08 04:37:45;;;;;;;;;38.75;35.25;;;;;5.10;54.63;102951.50;2086854;27;46231;-61
2023/02/08 04:38:46;;;;;;;;;32.25;31.75;;;;;5.11;54.41;102944.50;2069188;28;46313;-62
2023/02/08 04:39:46;;;;;;;;;26.00;25.00;;;;;5.10;54.48;102946.22;2075659;27;46407;-63
2023/02/08 04:40:46;;;;;;;;;36.25;32.00;;;;;5.11;54.33;102947.13;2068335;28;46043;-63
2023/02/08 04:41:47;;;;;;;;;34.25;33.00;;;;;5.11;54.33;102941.88;2069540;27;46676;-63
2023/02/08 04:42:47;;;;;;;;;34.50;31.00;;;;;5.11;54.31;102945.41;2077559;27;46172;-62
2023/02/08 04:43:47;;;;;;;;;33.00;29.75;;;;;5.12;54.61;102946.28;2076197;28;46521;-62
2023/02/08 04:44:48;;;;;;;;;31.00;27.75;;;;;5.13;54.13;102941.06;2066698;27;46295;-62
2023/02/08 04:45:49;;;;;;;;;36.25;31.75;;;;;5.13;54.35;102941.06;2066284;27;46546;-63
2023/02/08 04:46:49;;;;;;;;;36.40;31.80;;;;;5.13;54.11;102941.06;2070063;27;46672;-61
2023/02/08 04:47:50;;;;;;;;;32.75;31.25;;;;;5.13;54.16;102938.44;2094223;27;46453;-61
2023/02/08 04:48:50;;;;;;;;;29.25;26.50;;;;;5.13;54.52;102942.81;2103853;27;45466;-61
2023/02/08 04:49:50;;;;;;;;;36.75;35.00;;;;;5.13;54.63;102935.81;2110691;27;46449;-62
2023/02/08 04:50:55;;;;;;;;;37.75;33.50;;;;;5.15;53.97;102943.75;2086117;27;46280;-62
2023/02/08 04:51:55;;;;;;;;;35.40;34.40;;;;;5.16;54.37;102940.28;2110027;27;46804;-62
2023/02/08 04:52:56;;;;;;;;;36.00;35.50;;;;;5.15;54.39;102930.59;2070502;27;46274;-62
2023/02/08 04:53:56;;;;;;;;;57.75;48.25;;;;;5.14;54.28;102934.97;2074052;28;46780;-62
2023/02/08 04:54:56;;;;;;;;;44.25;40.00;;;;;5.15;53.91;102941.13;2078902;28;46738;-61
2023/02/08 04:55:56;;;;;;;;;37.25;32.75;;;;;5.14;54.40;102929.69;2097761;27;46646;-61
2023/02/08 04:56:57;;;;;;;;;40.25;34.00;;;;;5.15;54.00;102933.22;2102534;27;45858;-62
2023/02/08 04:57:57;;;;;;;;;34.00;33.00;;;;;5.13;53.76;102930.53;2113601;27;46083;-62
2023/02/08 04:58:58;;;;;;;;;35.75;33.00;;;;;5.12;53.85;102927.88;2094075;27;46578;-62
2023/02/08 04:59:58;;;;;;;;;38.75;36.00;;;;;5.10;54.25;102927.81;2101528;28;47304;-62
2023/02/08 05:00:58;;;;;;;;;37.25;32.75;;;;;5.10;54.18;102933.06;2105011;27;46524;-63
2023/02/08 05:01:59;;;;;;;;;36.25;35.50;;;;;5.07;54.17;102935.56;2102189;27;46184;-64